Time;durP1;ratioP1;P1;durP2;ratioP2;P2;SDS_P1;SDS_P2;PMS_P1;PMS_P2;Temp;Humidity;BMP_temperature;BMP_pressure;BME280_temperature;BME280_humidity;BME280_pressure;Samples;Min_cycle;Max_cycle;Signal;HPM_P1;HPM_P2
2022/10/03 00:03:04;;;;;;;2.22;1.92;;;23.00;52.20;;;;;;4951493;28;20411;-67
2022/10/03 00:06:02;;;;;;;1.98;1.77;;;23.00;52.20;;;;;;4961622;28;20058;-67
2022/10/03 00:09:08;;;;;;;2.45;1.95;;;23.00;52.20;;;;;;4973819;28;20054;-67
2022/10/03 00:12:04;;;;;;;3.47;2.13;;;23.00;52.20;;;;;;4973404;28;20058;-67
2022/10/03 00:14:46;;;;;;;2.13;1.80;;;23.00;52.20;;;;;;4956422;28;20057;-67
2022/10/03 00:17:38;;;;;;;2.97;1.50;;;23.00;52.30;;;;;;4972731;28;20055;-67
2022/10/03 00:20:37;;;;;;;2.53;2.00;;;23.00;52.30;;;;;;4973607;28;20046;-67
2022/10/03 00:23:23;;;;;;;2.30;2.10;;;23.00;52.30;;;;;;4972561;28;20483;-67
2022/10/03 00:26:27;;;;;;;2.58;2.00;;;23.00;52.30;;;;;;4973147;28;20054;-67
2022/10/03 00:29:28;;;;;;;2.60;1.67;;;23.00;52.40;;;;;;4973613;28;20050;-67
2022/10/03 00:32:19;;;;;;;2.60;2.00;;;23.00;52.30;;;;;;4971872;28;20129;-67
2022/10/03 00:35:20;;;;;;;1.90;1.80;;;23.00;52.40;;;;;;4950945;28;20066;-67
2022/10/03 00:38:27;;;;;;;1.40;1.33;;;23.00;52.40;;;;;;4973294;28;20490;-67
2022/10/03 00:41:26;;;;;;;2.28;2.08;;;23.00;52.40;;;;;;4961288;28;20055;-67
2022/10/03 00:44:28;;;;;;;1.80;1.70;;;23.00;52.40;;;;;;4973331;28;20130;-67
2022/10/03 00:47:28;;;;;;;3.08;2.00;;;23.00;52.50;;;;;;4972196;28;20053;-67
2022/10/03 00:50:16;;;;;;;2.53;1.50;;;23.00;52.50;;;;;;4958036;28;20051;-67
2022/10/03 00:53:17;;;;;;;2.83;1.58;;;23.00;53.10;;;;;;4972244;28;20498;-67
2022/10/03 00:56:24;;;;;;;1.48;1.33;;;22.90;52.50;;;;;;4971625;28;20050;-67
2022/10/03 00:59:24;;;;;;;1.65;1.55;;;22.90;52.50;;;;;;4971427;28;20125;-67
2022/10/03 01:01:51;;;;;;;2.25;1.70;;;23.00;52.50;;;;;;4944120;28;20047;-67
2022/10/03 01:04:48;;;;;;;1.77;1.50;;;22.90;52.50;;;;;;4972793;28;20042;-67
2022/10/03 01:07:43;;;;;;;1.58;1.48;;;22.90;52.60;;;;;;4969877;28;20062;-67
2022/10/03 01:10:21;;;;;;;1.63;1.52;;;23.00;52.60;;;;;;4958044;28;20511;-67
2022/10/03 01:13:17;;;;;;;1.75;1.65;;;22.90;52.60;;;;;;4972866;28;20372;-67
2022/10/03 01:16:00;;;;;;;2.20;1.80;;;22.90;52.70;;;;;;4958315;28;20500;-67
2022/10/03 01:19:06;;;;;;;1.67;1.58;;;22.90;52.70;;;;;;4972688;28;20053;-67
2022/10/03 01:22:09;;;;;;;2.05;1.83;;;22.90;52.70;;;;;;4972345;28;20467;-67
2022/10/03 01:24:58;;;;;;;3.67;1.70;;;22.90;52.70;;;;;;4960556;28;20372;-67
2022/10/03 01:30:42;;;;;;;7.22;1.33;;;22.90;52.80;;;;;;4958940;28;20506;-67
2022/10/03 01:33:17;;;;;;;1.38;1.27;;;22.90;52.90;;;;;;4974385;28;20047;-67
2022/10/03 01:36:11;;;;;;;1.88;1.13;;;22.90;52.90;;;;;;4958896;28;20050;-67
2022/10/03 01:39:03;;;;;;;2.08;1.48;;;22.90;52.80;;;;;;4973901;28;20492;-67
2022/10/03 01:41:57;;;;;;;4.40;1.30;;;22.90;52.80;;;;;;4975552;28;20061;-67
2022/10/03 01:45:05;;;;;;;1.33;1.10;;;22.90;52.80;;;;;;4976444;28;20459;-67
2022/10/03 01:47:50;;;;;;;1.30;1.20;;;22.90;52.80;;;;;;4964753;28;20507;-67
2022/10/03 01:50:37;;;;;;;1.50;1.40;;;22.90;52.80;;;;;;4959493;28;20082;-67
2022/10/03 01:53:28;;;;;;;1.95;1.85;;;22.90;52.70;;;;;;4975813;28;20055;-67
2022/10/03 01:56:11;;;;;;;1.73;1.55;;;22.90;52.70;;;;;;4976153;28;20057;-67
2022/10/03 01:58:57;;;;;;;3.50;1.20;;;22.90;52.70;;;;;;4959565;28;20546;-67
2022/10/03 02:01:33;;;;;;;1.20;1.13;;;22.90;52.70;;;;;;4959326;28;20045;-67
2022/10/03 02:04:34;;;;;;;1.80;1.10;;;22.90;52.70;;;;;;4975685;28;20051;-68
2022/10/03 02:07:41;;;;;;;2.42;1.30;;;22.90;52.70;;;;;;4975319;28;20051;-67
2022/10/03 02:10:37;;;;;;;2.67;1.27;;;22.90;52.70;;;;;;4971375;28;20050;-67
2022/10/03 02:13:22;;;;;;;1.10;1.00;;;22.90;52.70;;;;;;4973879;28;20532;-67
2022/10/03 02:16:08;;;;;;;0.73;0.73;;;22.90;52.70;;;;;;4975629;28;20576;-63
2022/10/03 02:18:54;;;;;;;1.23;1.13;;;22.90;52.70;;;;;;4975418;28;20051;-67
2022/10/03 02:21:25;;;;;;;1.40;1.30;;;22.80;52.70;;;;;;4974321;28;20047;-67
2022/10/03 02:24:23;;;;;;;1.10;1.10;;;22.90;52.80;;;;;;4975343;28;20047;-67
2022/10/03 02:27:30;;;;;;;1.13;1.02;;;22.90;52.80;;;;;;4975487;28;20047;-67
2022/10/03 02:30:24;;;;;;;2.47;1.77;;;22.90;52.80;;;;;;4975378;28;20058;-67
2022/10/03 02:33:31;;;;;;;1.80;1.08;;;22.80;52.80;;;;;;4961068;28;20085;-67
2022/10/03 02:36:29;;;;;;;3.03;1.48;;;22.90;52.80;;;;;;4986948;28;20047;-67
2022/10/03 02:39:37;;;;;;;1.77;1.55;;;22.80;52.80;;;;;;4975491;28;20085;-67
2022/10/03 02:42:43;;;;;;;2.30;1.30;;;22.80;52.80;;;;;;4970122;28;20050;-67
2022/10/03 02:45:48;;;;;;;1.35;1.20;;;22.80;52.80;;;;;;4974387;28;20333;-67
2022/10/03 02:48:50;;;;;;;1.30;1.15;;;22.80;52.80;;;;;;4962822;28;20558;-67
2022/10/03 02:51:57;;;;;;;0.90;0.90;;;22.80;52.80;;;;;;4973949;28;20054;-67
2022/10/03 02:54:51;;;;;;;1.50;1.30;;;22.80;52.80;;;;;;4974543;28;20043;-67
2022/10/03 02:57:59;;;;;;;0.80;0.80;;;22.80;52.80;;;;;;4975359;28;20053;-67
2022/10/03 03:01:00;;;;;;;1.27;1.02;;;22.80;52.90;;;;;;4974265;28;20500;-67
2022/10/03 03:04:01;;;;;;;2.42;0.95;;;22.80;52.90;;;;;;4974588;28;20058;-67
2022/10/03 03:07:08;;;;;;;1.70;1.17;;;22.80;52.90;;;;;;4974187;28;20055;-67
2022/10/03 03:10:11;;;;;;;0.88;0.88;;;22.70;52.90;;;;;;4979525;28;20061;-67
2022/10/03 03:13:21;;;;;;;1.42;1.20;;;22.80;52.90;;;;;;4993728;28;20046;-67
2022/10/03 03:16:28;;;;;;;1.10;1.00;;;22.80;52.90;;;;;;4990987;28;20064;-67
2022/10/03 03:19:34;;;;;;;0.95;0.70;;;22.70;52.90;;;;;;4993644;28;20650;-67
2022/10/03 03:22:40;;;;;;;1.23;1.13;;;22.70;53.00;;;;;;4979162;28;20059;-67
2022/10/03 03:25:32;;;;;;;1.38;1.27;;;22.70;53.00;;;;;;4973360;28;20050;-67
2022/10/03 03:28:39;;;;;;;1.00;0.80;;;22.70;53.00;;;;;;4959379;28;20058;-67
2022/10/03 03:31:41;;;;;;;1.30;0.95;;;22.70;53.10;;;;;;4972616;28;20055;-67
2022/10/03 03:34:46;;;;;;;1.08;0.80;;;22.70;53.10;;;;;;4957209;28;20046;-67
2022/10/03 03:37:43;;;;;;;0.85;0.70;;;22.70;53.10;;;;;;4974170;28;20062;-67
2022/10/03 03:40:45;;;;;;;1.20;1.00;;;22.70;53.10;;;;;;4973737;28;20053;-67
2022/10/03 03:43:43;;;;;;;1.08;0.98;;;22.70;53.20;;;;;;4958579;28;20416;-67
2022/10/03 03:46:50;;;;;;;0.70;0.70;;;22.70;53.20;;;;;;4967605;28;20610;-67
2022/10/03 03:49:42;;;;;;;1.20;0.80;;;22.70;53.20;;;;;;4971172;28;20145;-67
2022/10/03 03:52:47;;;;;;;0.90;0.80;;;22.70;53.20;;;;;;4974231;28;20054;-67
2022/10/03 03:55:44;;;;;;;1.00;0.82;;;22.70;53.10;;;;;;4973323;28;20062;-67
2022/10/03 03:58:34;;;;;;;1.58;0.98;;;22.70;53.10;;;;;;4973826;28;20053;-67
2022/10/03 04:01:41;;;;;;;1.08;0.98;;;22.70;53.00;;;;;;4973813;28;20050;-67
2022/10/03 04:04:42;;;;;;;0.70;0.70;;;22.70;53.00;;;;;;4973454;28;20581;-67
2022/10/03 04:07:49;;;;;;;1.17;0.93;;;22.70;53.00;;;;;;4971185;28;20404;-67
2022/10/03 04:10:45;;;;;;;0.70;0.70;;;22.70;53.00;;;;;;4948997;28;20051;-67
2022/10/03 04:13:28;;;;;;;0.70;0.70;;;22.70;53.00;;;;;;4972729;28;20046;-67
2022/10/03 04:18:56;;;;;;;0.70;0.70;;;22.70;53.00;;;;;;4957247;28;20057;-67
2022/10/03 04:19:30;;;;;;;0.70;0.70;;;22.70;53.00;;;;;;4970567;28;20050;-67
2022/10/03 04:22:32;;;;;;;1.40;0.85;;;22.70;53.00;;;;;;4972774;28;20400;-67
2022/10/03 04:25:30;;;;;;;0.55;0.55;;;22.60;53.00;;;;;;4964129;28;20408;-67
2022/10/03 04:28:33;;;;;;;1.27;0.60;;;22.70;53.00;;;;;;4962920;28;20062;-67
2022/10/03 04:31:42;;;;;;;0.52;0.52;;;22.70;53.00;;;;;;4965236;28;20051;-67
2022/10/03 04:34:42;;;;;;;1.43;0.60;;;22.70;53.00;;;;;;4962393;28;20043;-67
2022/10/03 04:37:41;;;;;;;0.65;0.65;;;22.60;53.00;;;;;;4958640;28;20129;-66
2022/10/03 04:40:48;;;;;;;0.73;0.35;;;22.70;52.80;;;;;;4954503;28;20058;-67
2022/10/03 04:43:52;;;;;;;0.73;0.50;;;22.60;52.60;;;;;;4953520;29;20059;-67
2022/10/03 04:46:46;;;;;;;0.73;0.60;;;22.70;52.50;;;;;;4953073;29;20063;-67
2022/10/03 04:49:27;;;;;;;0.70;0.70;;;22.70;52.30;;;;;;4971413;28;20054;-67
2022/10/03 04:52:27;;;;;;;0.98;0.82;;;22.70;52.20;;;;;;4992388;28;20042;-67
2022/10/03 04:55:27;;;;;;;0.80;0.80;;;22.70;52.10;;;;;;4991192;28;20053;-67
2022/10/03 04:58:25;;;;;;;0.60;0.60;;;22.70;52.00;;;;;;4985222;28;20054;-67
2022/10/03 05:01:17;;;;;;;2.03;0.68;;;22.70;52.00;;;;;;4962500;28;20069;-67
2022/10/03 05:04:09;;;;;;;1.75;0.70;;;22.70;52.10;;;;;;4954198;28;20057;-66
2022/10/03 05:06:51;;;;;;;0.73;0.52;;;22.70;52.40;;;;;;4945375;28;20523;-67
2022/10/03 05:09:31;;;;;;;0.52;0.52;;;22.70;52.00;;;;;;4960594;28;20064;-68
2022/10/03 05:16:32;;;;;;;0.70;0.70;;;22.60;51.90;;;;;;4965122;28;20039;-67
2022/10/03 05:19:32;;;;;;;0.20;0.20;;;22.70;51.80;;;;;;4960618;28;20479;-67
2022/10/03 05:22:29;;;;;;;0.65;0.40;;;22.70;51.70;;;;;;4954329;29;20047;-66
2022/10/03 05:25:17;;;;;;;0.57;0.57;;;22.60;51.60;;;;;;4966133;28;20047;-69
2022/10/03 05:28:27;;;;;;;0.30;0.30;;;22.70;51.70;;;;;;4971605;28;20062;-69
2022/10/03 05:34:46;;;;;;;2.08;0.30;;;22.70;51.90;;;;;;4970556;28;20047;-67
2022/10/03 05:37:43;;;;;;;0.65;0.60;;;22.70;51.80;;;;;;4975626;28;20051;-66
2022/10/03 05:48:55;;;;;;;1.13;0.28;;;22.80;51.50;;;;;;4969963;28;20065;-68
2022/10/03 05:51:45;;;;;;;2.25;0.32;;;22.90;51.40;;;;;;4961247;28;20062;-65
2022/10/03 06:02:52;;;;;;;1.05;0.40;;;23.00;51.20;;;;;;4976552;28;20498;-68
2022/10/03 06:05:50;;;;;;;2.28;1.00;;;23.00;51.20;;;;;;4959773;28;20051;-69
2022/10/03 06:08:47;;;;;;;3.42;0.32;;;23.10;51.20;;;;;;4959462;28;20062;-66
2022/10/03 06:12:15;;;;;;;0.77;0.40;;;23.10;51.20;;;;;;4959473;28;20043;-70
2022/10/03 06:27:35;;;;;;;0.93;0.77;;;23.40;50.20;;;;;;5018557;28;20422;-65
2022/10/03 06:30:22;;;;;;;1.60;0.73;;;23.40;50.00;;;;;;5017971;28;20061;-70
2022/10/03 06:33:45;;;;;;;0.30;0.30;;;23.40;49.80;;;;;;5017923;28;20054;-67
2022/10/03 06:40:31;;;;;;;2.45;0.50;;;23.50;49.60;;;;;;4994191;28;20057;-64
2022/10/03 06:51:25;;;;;;;3.42;0.65;;;23.60;49.80;;;;;;5620464;23;20056;-63
2022/10/03 06:54:29;;;;;;;1.85;1.08;;;23.70;49.70;;;;;;4921323;29;20091;-64
2022/10/03 06:57:22;;;;;;;2.58;0.40;;;23.70;49.70;;;;;;4902949;29;20059;-65
2022/10/03 07:00:18;;;;;;;0.88;0.45;;;23.70;49.70;;;;;;4903485;29;20064;-66
2022/10/03 07:03:41;;;;;;;1.10;0.57;;;23.80;49.60;;;;;;4919584;29;20052;-62
2022/10/03 07:07:04;;;;;;;0.40;0.40;;;23.80;49.50;;;;;;4918830;29;20701;-66
2022/10/03 07:14:05;;;;;;;2.20;0.30;;;23.90;49.60;;;;;;4920443;29;20084;-61
2022/10/03 07:16:59;;;;;;;2.05;0.68;;;24.00;49.50;;;;;;4937162;29;20473;-65
2022/10/03 07:19:55;;;;;;;5.43;0.77;;;24.00;49.40;;;;;;4940091;29;20052;-64
2022/10/03 07:22:51;;;;;;;0.88;0.40;;;24.10;49.30;;;;;;4940170;29;20466;-64
2022/10/03 07:25:58;;;;;;;4.65;0.47;;;24.10;49.20;;;;;;4940002;29;20060;-66
2022/10/03 07:28:55;;;;;;;1.85;0.63;;;24.10;49.20;;;;;;4939872;29;20412;-64
2022/10/03 07:31:41;;;;;;;2.15;0.52;;;24.10;49.20;;;;;;4940491;29;20055;-65
2022/10/03 07:34:48;;;;;;;6.15;0.57;;;24.20;49.20;;;;;;4939885;29;20074;-68
2022/10/03 07:41:15;;;;;;;2.28;0.32;;;24.20;48.80;;;;;;4928398;29;20052;-66
2022/10/03 07:44:23;;;;;;;2.90;0.93;;;24.20;48.70;;;;;;4923730;29;20056;-65
2022/10/03 07:47:29;;;;;;;1.85;0.80;;;24.30;48.70;;;;;;4928704;29;20147;-64
2022/10/03 07:50:34;;;;;;;0.60;0.60;;;24.30;48.50;;;;;;4928210;29;20051;-62
2022/10/03 08:12:22;;;;;;;1.92;1.55;;;24.40;47.50;;;;;;4986617;28;20064;-65
2022/10/03 08:23:27;;;;;;;5.05;1.80;;;24.50;47.30;;;;;;5952838;23;20049;-66
2022/10/03 08:26:13;;;;;;;3.42;1.52;;;24.50;47.10;;;;;;4995280;28;20495;-65
2022/10/03 08:29:10;;;;;;;6.55;1.55;;;24.50;47.10;;;;;;4997038;28;20479;-63
2022/10/03 08:32:10;;;;;;;5.18;1.25;;;24.50;46.90;;;;;;4996937;28;20050;-64
2022/10/03 08:35:07;;;;;;;5.30;1.48;;;24.50;46.70;;;;;;4996873;28;20069;-64
2022/10/03 08:38:11;;;;;;;1.50;1.10;;;24.50;46.40;;;;;;4996054;28;20054;-65
2022/10/03 08:41:12;;;;;;;3.80;1.30;;;24.50;46.20;;;;;;4996786;28;20047;-66
2022/10/03 08:44:13;;;;;;;4.10;1.45;;;24.50;46.20;;;;;;4996701;28;20054;-65
2022/10/03 08:47:08;;;;;;;3.17;1.30;;;24.50;46.10;;;;;;4996696;28;20391;-67
2022/10/03 08:50:15;;;;;;;3.35;0.95;;;24.60;46.00;;;;;;4995741;28;20438;-65
2022/10/03 08:53:21;;;;;;;2.97;1.38;;;24.60;45.70;;;;;;4996101;28;20081;-65
2022/10/03 08:56:07;;;;;;;3.85;1.45;;;24.60;45.70;;;;;;4996583;28;20057;-65
2022/10/03 08:59:14;;;;;;;3.30;1.42;;;24.60;45.50;;;;;;4996184;28;20047;-64
2022/10/03 09:02:16;;;;;;;1.55;1.00;;;24.60;45.40;;;;;;4995591;28;20402;-66
2022/10/03 09:05:13;;;;;;;10.85;1.52;;;24.60;45.20;;;;;;4996117;28;20498;-68
2022/10/03 09:08:19;;;;;;;2.97;1.30;;;24.60;45.10;;;;;;4997354;28;20046;-63
2022/10/03 09:11:26;;;;;;;4.93;1.77;;;24.60;45.10;;;;;;4995149;28;20051;-64
2022/10/03 09:14:31;;;;;;;4.40;1.58;;;24.60;45.00;;;;;;4995949;28;20515;-62
2022/10/03 09:17:27;;;;;;;3.45;1.10;;;24.70;45.30;;;;;;4995114;28;20042;-64
2022/10/03 09:20:25;;;;;;;3.22;1.33;;;24.70;45.30;;;;;;4995958;28;20061;-63
2022/10/03 09:23:32;;;;;;;2.25;1.30;;;24.70;45.40;;;;;;4996061;28;20047;-64
2022/10/03 09:26:38;;;;;;;3.28;1.13;;;24.70;45.00;;;;;;4996291;28;20050;-63
2022/10/03 09:29:46;;;;;;;1.77;1.13;;;24.80;45.00;;;;;;4996220;28;20137;-62
2022/10/03 09:32:48;;;;;;;5.03;1.77;;;24.70;44.50;;;;;;4996368;28;20053;-63
2022/10/03 09:35:44;;;;;;;5.63;1.92;;;24.80;44.60;;;;;;4996352;28;20046;-67
2022/10/03 09:38:51;;;;;;;6.13;1.90;;;24.80;44.60;;;;;;4995367;28;20053;-64
2022/10/03 09:41:58;;;;;;;6.22;1.73;;;24.80;44.70;;;;;;4996189;28;20074;-63
2022/10/03 09:44:56;;;;;;;5.35;2.00;;;24.90;44.50;;;;;;4995884;28;20414;-63
2022/10/03 09:47:56;;;;;;;3.67;2.10;;;24.90;44.30;;;;;;4995692;28;20054;-63
2022/10/03 09:50:58;;;;;;;2.42;1.50;;;24.90;44.20;;;;;;4996329;28;20211;-62
2022/10/03 09:53:58;;;;;;;2.80;1.48;;;24.90;44.30;;;;;;4996309;28;20050;-66
2022/10/03 09:56:46;;;;;;;;;;;24.90;44.40;;;;;;4999106;28;20064;-66
2022/10/03 09:59:51;;;;;;;4.35;1.20;;;25.00;44.10;;;;;;4985201;28;19998;-70
2022/10/03 10:09:29;;;;;;;9.30;1.10;;;25.10;43.60;;;;;;6020737;23;21692;-68
2022/10/03 10:12:04;;;;;;;;;;;25.10;43.40;;;;;;4961155;29;20463;-70
2022/10/03 10:15:03;;;;;;;2.08;0.70;;;25.10;43.00;;;;;;4960721;29;20256;-66
2022/10/03 10:22:11;;;;;;;1.50;0.63;;;25.10;42.00;;;;;;4953451;28;20554;-66
2022/10/03 10:25:23;;;;;;;3.35;0.82;;;25.20;41.70;;;;;;4960405;29;20055;-71
2022/10/03 10:28:12;;;;;;;1.33;0.80;;;25.20;41.40;;;;;;4960219;29;20488;-69
2022/10/03 10:34:29;;;;;;;3.35;0.80;;;25.20;41.10;;;;;;5113387;23;20045;-70
2022/10/03 10:37:54;;;;;;;2.08;0.65;;;25.20;40.80;;;;;;5002100;28;20062;-66
2022/10/03 10:40:43;;;;;;;3.30;0.57;;;25.30;40.80;;;;;;4999275;28;20061;-66
2022/10/03 10:43:46;;;;;;;1.35;0.70;;;25.20;40.40;;;;;;4998872;28;20050;-68
2022/10/03 10:47:18;;;;;;;7.53;0.57;;;25.20;40.20;;;;;;5007290;28;20040;-67
2022/10/03 10:50:25;;;;;;;3.50;0.68;;;25.20;40.50;;;;;;4999519;28;20046;-65
2022/10/03 11:05:51;;;;;;;1.50;0.52;;;25.30;40.70;;;;;;5085785;23;20439;-70
2022/10/03 11:08:58;;;;;;;0.90;0.40;;;25.30;41.20;;;;;;4997028;28;20407;-66
2022/10/03 11:12:06;;;;;;;1.10;0.40;;;25.40;41.00;;;;;;4995248;28;20054;-70
2022/10/03 11:15:13;;;;;;;1.52;0.60;;;25.40;40.80;;;;;;4991914;28;20411;-65
2022/10/03 11:18:14;;;;;;;2.33;0.35;;;25.40;40.50;;;;;;4977689;28;20055;-66
2022/10/03 11:21:20;;;;;;;3.38;0.70;;;25.40;40.70;;;;;;4989932;28;20049;-67
2022/10/03 11:24:26;;;;;;;0.93;0.70;;;25.40;40.70;;;;;;4978950;28;20106;-66
2022/10/03 11:27:21;;;;;;;1.65;0.63;;;25.50;40.70;;;;;;4978514;28;20051;-65
2022/10/03 11:34:32;;;;;;;1.20;0.55;;;25.60;40.30;;;;;;5173482;23;20129;-72
2022/10/03 11:37:12;;;;;;;0.95;0.55;;;25.70;40.70;;;;;;5016590;28;20050;-68
2022/10/03 11:39:59;;;;;;;4.43;0.60;;;25.70;40.80;;;;;;4979921;28;20050;-68
2022/10/03 11:43:00;;;;;;;2.75;0.65;;;25.70;40.90;;;;;;4979522;28;20062;-68
2022/10/03 11:45:38;;;;;;;6.28;0.82;;;25.70;40.50;;;;;;4977319;28;20533;-70
2022/10/03 11:48:38;;;;;;;2.80;0.30;;;25.70;40.00;;;;;;4977073;28;20046;-71
2022/10/03 11:51:14;;;;;;;3.63;0.30;;;25.70;39.70;;;;;;4977118;28;20058;-67
2022/10/03 11:53:54;;;;;;;0.30;0.30;;;25.70;39.50;;;;;;4978304;28;20055;-62
2022/10/03 11:56:46;;;;;;;2.63;0.47;;;25.70;39.40;;;;;;4977963;28;20047;-62
2022/10/03 11:59:38;;;;;;;6.85;0.50;;;25.70;39.20;;;;;;4978622;28;20069;-68
2022/10/03 12:02:34;;;;;;;1.02;0.20;;;25.70;39.30;;;;;;4977928;28;20046;-63
2022/10/03 12:05:27;;;;;;;1.60;0.40;;;25.70;39.20;;;;;;4977766;28;20058;-65
2022/10/03 12:08:54;;;;;;;1.27;0.40;;;25.80;39.40;;;;;;4976768;28;20051;-66
2022/10/03 12:11:44;;;;;;;4.30;0.32;;;25.70;39.20;;;;;;4976380;28;20134;-66
2022/10/03 12:14:29;;;;;;;2.08;0.20;;;25.70;39.20;;;;;;4977260;28;20078;-64
2022/10/03 12:17:14;;;;;;;1.27;0.22;;;25.80;39.40;;;;;;4976417;28;20105;-65
2022/10/03 12:20:21;;;;;;;3.67;0.73;;;25.70;39.40;;;;;;4984695;28;20046;-66
2022/10/03 12:23:21;;;;;;;2.83;0.75;;;25.80;39.60;;;;;;4996016;28;20057;-65
2022/10/03 12:26:37;;;;;;;2.15;0.30;;;25.80;39.80;;;;;;5003278;28;20039;-68
2022/10/03 12:29:10;;;;;;;2.47;0.38;;;25.80;39.90;;;;;;4991949;28;20034;-63
2022/10/03 12:50:11;;;;;;;4.22;0.47;;;26.00;39.90;;;;;;4998588;28;20041;-67
2022/10/03 12:52:49;;;;;;;1.80;0.50;;;26.00;40.10;;;;;;4993679;28;20086;-65
2022/10/03 12:55:27;;;;;;;2.38;0.40;;;26.00;40.10;;;;;;4996243;28;20499;-69
2022/10/03 12:58:19;;;;;;;1.20;0.82;;;26.10;40.50;;;;;;4996061;28;20054;-65
2022/10/03 13:01:19;;;;;;;2.13;0.40;;;26.10;40.50;;;;;;4999687;28;20499;-64
2022/10/03 13:03:59;;;;;;;0.65;0.32;;;26.10;40.30;;;;;;5007177;28;20046;-66
2022/10/03 13:06:49;;;;;;;0.85;0.50;;;26.10;40.60;;;;;;4996012;28;20055;-64
2022/10/03 13:09:58;;;;;;;1.98;0.60;;;26.10;40.70;;;;;;5009764;28;20046;-68
2022/10/03 13:16:49;;;;;;;0.85;0.40;;;26.10;40.50;;;;;;4986378;28;20045;-67
2022/10/03 13:45:43;;;;;;;1.80;0.35;;;26.10;40.60;;;;;;5304326;22;20135;-66
2022/10/03 13:48:19;;;;;;;3.13;0.60;;;26.10;41.20;;;;;;5019356;28;20100;-67
2022/10/03 13:51:10;;;;;;;0.98;0.22;;;26.10;40.50;;;;;;5033920;28;20065;-65
2022/10/03 13:53:45;;;;;;;;;;;26.10;40.80;;;;;;5021855;28;20050;-64
2022/10/03 13:56:43;;;;;;;3.40;0.50;;;26.10;40.50;;;;;;5020237;28;19921;-65
2022/10/03 13:59:38;;;;;;;1.92;0.50;;;26.10;40.30;;;;;;5020202;28;20477;-66
2022/10/03 14:02:40;;;;;;;1.05;0.63;;;26.10;40.50;;;;;;5019285;28;20053;-67
2022/10/03 14:05:25;;;;;;;4.88;0.30;;;26.10;40.50;;;;;;5019304;28;20050;-64
2022/10/03 14:08:27;;;;;;;5.95;0.30;;;26.10;40.50;;;;;;5018881;28;20050;-66
2022/10/03 14:11:24;;;;;;;0.80;0.63;;;26.00;40.80;;;;;;5017918;28;20052;-67
2022/10/03 14:14:23;;;;;;;0.98;0.40;;;26.00;40.60;;;;;;5019513;28;20487;-65
2022/10/03 14:17:19;;;;;;;1.77;0.40;;;26.10;40.80;;;;;;5020434;28;20057;-67
2022/10/03 14:20:14;;;;;;;0.95;0.45;;;26.00;40.60;;;;;;5020323;28;20060;-69
2022/10/03 14:23:06;;;;;;;2.13;0.50;;;26.10;40.80;;;;;;5019134;28;20085;-66
2022/10/03 14:25:46;;;;;;;2.65;0.98;;;26.00;40.70;;;;;;5019109;28;20054;-68
2022/10/03 14:28:42;;;;;;;2.70;0.73;;;26.00;40.80;;;;;;5018708;28;20222;-65
2022/10/03 14:31:34;;;;;;;3.47;0.70;;;26.00;40.90;;;;;;5017732;28;20073;-62
2022/10/03 14:34:26;;;;;;;5.85;1.15;;;26.00;41.10;;;;;;4997527;28;20064;-65
2022/10/03 14:37:13;;;;;;;5.28;0.85;;;26.10;41.10;;;;;;5000139;28;20053;-65
2022/10/03 14:40:11;;;;;;;10.25;2.80;;;26.00;40.90;;;;;;5007532;28;20124;-65
2022/10/03 14:43:16;;;;;;;7.50;2.08;;;26.10;40.80;;;;;;5005625;28;20046;-66
2022/10/03 14:45:51;;;;;;;6.97;1.25;;;26.00;40.80;;;;;;5007381;28;20615;-66
2022/10/03 14:48:24;;;;;;;7.85;2.20;;;26.00;40.80;;;;;;5006749;28;20137;-67
2022/10/03 14:50:59;;;;;;;11.50;2.38;;;25.90;40.80;;;;;;5006884;28;20050;-65
2022/10/03 14:53:28;;;;;;;8.68;1.65;;;25.90;41.00;;;;;;5006105;28;20053;-66
2022/10/03 14:56:11;;;;;;;5.67;1.73;;;25.90;41.10;;;;;;5004229;28;20057;-66
2022/10/03 14:58:53;;;;;;;8.80;2.05;;;25.90;41.30;;;;;;5006832;28;20321;-66
2022/10/03 15:01:23;;;;;;;10.57;2.10;;;25.90;41.30;;;;;;5010198;28;20048;-66
2022/10/03 15:04:12;;;;;;;3.05;1.25;;;25.80;41.30;;;;;;5004844;28;20416;-66
2022/10/03 15:06:55;;;;;;;3.93;0.93;;;25.80;41.60;;;;;;5011817;28;20513;-66
2022/10/03 15:09:45;;;;;;;8.60;1.83;;;25.80;41.50;;;;;;5007338;28;20323;-66
2022/10/03 15:12:19;;;;;;;7.65;2.28;;;25.70;41.90;;;;;;5006111;28;20392;-65
2022/10/03 15:14:56;;;;;;;9.23;2.40;;;25.70;41.80;;;;;;5009102;28;20065;-66
2022/10/03 15:17:27;;;;;;;8.10;1.90;;;25.70;41.90;;;;;;5008462;28;20037;-66
2022/10/03 15:19:56;;;;;;;8.70;2.10;;;25.70;42.10;;;;;;5000399;28;20053;-66
2022/10/03 15:22:41;;;;;;;6.38;1.90;;;25.60;42.50;;;;;;5000543;28;20481;-66
2022/10/03 15:25:19;;;;;;;10.73;2.20;;;25.60;42.70;;;;;;5007286;28;20046;-66
2022/10/03 15:27:50;;;;;;;8.63;2.17;;;25.60;43.30;;;;;;5003098;28;20046;-65
2022/10/03 15:30:24;;;;;;;9.18;2.50;;;25.60;43.40;;;;;;5009248;28;20092;-65
2022/10/03 15:33:28;;;;;;;18.02;2.03;;;25.60;43.80;;;;;;5001884;28;20519;-65
2022/10/03 15:36:00;;;;;;;10.43;2.80;;;25.50;43.70;;;;;;5005310;28;20046;-65
2022/10/03 15:38:38;;;;;;;7.95;2.10;;;25.50;43.70;;;;;;5007096;28;20046;-66
2022/10/03 15:41:15;;;;;;;9.55;2.28;;;25.50;43.80;;;;;;5003516;28;20520;-65
2022/10/03 15:44:14;;;;;;;8.63;1.55;;;25.50;43.90;;;;;;5008063;28;20050;-66
2022/10/03 15:46:45;;;;;;;7.50;1.60;;;25.40;43.80;;;;;;5005642;28;20510;-66
2022/10/03 15:49:26;;;;;;;13.40;2.03;;;25.40;43.80;;;;;;5009210;28;20064;-66
2022/10/03 15:51:56;;;;;;;13.02;2.20;;;25.40;43.70;;;;;;5001195;28;20049;-66
2022/10/03 15:54:28;;;;;;;12.02;2.30;;;25.40;43.90;;;;;;5006908;28;20053;-65
2022/10/03 15:56:59;;;;;;;9.38;2.08;;;25.40;44.20;;;;;;4999920;28;20045;-66
2022/10/03 15:59:35;;;;;;;14.48;1.42;;;25.40;44.30;;;;;;5003947;28;20252;-65
2022/10/03 16:02:14;;;;;;;4.45;1.60;;;25.30;44.10;;;;;;5001832;28;20073;-65
2022/10/03 16:04:45;;;;;;;6.07;1.40;;;25.30;44.00;;;;;;5009471;28;20046;-65
2022/10/03 16:07:31;;;;;;;6.57;1.30;;;25.30;44.00;;;;;;5004840;28;20056;-66
2022/10/03 16:10:19;;;;;;;15.73;2.38;;;25.20;43.80;;;;;;5009321;28;20413;-68
2022/10/03 16:13:24;;;;;;;6.32;2.22;;;25.20;44.00;;;;;;5009627;28;20046;-64
2022/10/03 16:16:07;;;;;;;7.75;1.75;;;25.10;44.70;;;;;;5009445;28;20046;-63
2022/10/03 16:19:13;;;;;;;6.30;1.65;;;25.10;46.30;;;;;;5009279;28;20130;-64
2022/10/03 16:22:02;;;;;;;9.45;2.25;;;25.10;48.10;;;;;;5009236;28;20053;-63
2022/10/03 16:24:45;;;;;;;8.35;1.95;;;25.00;49.10;;;;;;5009646;28;20405;-63
2022/10/03 16:27:23;;;;;;;3.45;1.73;;;25.00;49.60;;;;;;5008981;28;20050;-62
2022/10/03 16:30:11;;;;;;;13.77;1.65;;;24.90;49.80;;;;;;5009116;28;20046;-66
2022/10/03 16:33:02;;;;;;;8.48;1.52;;;24.90;49.50;;;;;;5007673;28;20072;-66
2022/10/03 16:35:43;;;;;;;8.18;1.80;;;24.90;49.20;;;;;;5009252;28;20486;-66
2022/10/03 16:38:22;;;;;;;9.38;1.48;;;24.80;48.90;;;;;;5004479;28;20457;-66
2022/10/03 16:41:03;;;;;;;7.35;1.20;;;24.80;49.00;;;;;;5008638;28;20262;-67
2022/10/03 16:43:32;;;;;;;6.50;1.58;;;24.70;49.20;;;;;;5007290;28;20486;-66
2022/10/03 16:46:03;;;;;;;10.30;1.33;;;24.70;49.30;;;;;;4990668;28;20050;-66
2022/10/03 16:51:25;;;;;;;9.93;1.48;;;24.60;49.20;;;;;;5008657;28;20137;-66
2022/10/03 16:53:54;;;;;;;8.38;1.73;;;24.60;49.00;;;;;;5008495;28;20065;-65
2022/10/03 16:56:28;;;;;;;5.93;1.73;;;24.60;48.70;;;;;;5008726;28;20053;-66
2022/10/03 16:58:59;;;;;;;6.65;1.70;;;24.50;48.20;;;;;;5006934;28;20057;-67
2022/10/03 17:01:38;;;;;;;4.80;1.40;;;24.50;48.00;;;;;;5008071;28;20433;-66
2022/10/03 17:04:30;;;;;;;7.97;1.10;;;24.50;47.80;;;;;;5007442;28;20057;-66
2022/10/03 17:07:02;;;;;;;6.03;1.17;;;24.50;47.60;;;;;;5008835;28;20283;-66
2022/10/03 17:09:42;;;;;;;9.70;1.63;;;24.40;47.50;;;;;;5005982;28;20073;-66
2022/10/03 17:12:20;;;;;;;3.97;1.52;;;24.40;47.40;;;;;;5006956;28;20050;-65
2022/10/03 17:14:47;;;;;;;8.50;1.48;;;24.30;47.30;;;;;;5007812;28;20404;-67
2022/10/03 17:17:45;;;;;;;2.92;1.00;;;24.30;47.30;;;;;;5008097;28;20049;-66
2022/10/03 17:20:40;;;;;;;6.13;1.60;;;24.30;47.30;;;;;;5008482;28;20046;-67
2022/10/03 17:23:26;;;;;;;2.10;1.13;;;24.30;47.30;;;;;;5006794;28;20050;-66
2022/10/03 17:26:03;;;;;;;8.35;1.27;;;24.20;47.30;;;;;;5007453;28;20686;-67
2022/10/03 17:28:37;;;;;;;5.47;1.13;;;24.20;47.30;;;;;;5007949;28;20128;-66
2022/10/03 17:31:23;;;;;;;6.43;1.13;;;24.20;47.30;;;;;;5008519;28;20046;-66
2022/10/03 17:34:12;;;;;;;5.75;1.67;;;24.10;47.30;;;;;;5007348;28;20061;-66
2022/10/03 17:37:19;;;;;;;4.88;1.45;;;24.10;47.30;;;;;;5007924;28;20057;-66
2022/10/03 17:39:54;;;;;;;8.77;1.15;;;24.10;47.30;;;;;;5005319;28;20048;-67
2022/10/03 17:42:37;;;;;;;3.88;0.95;;;24.10;47.40;;;;;;5004765;28;20041;-66
2022/10/03 17:45:29;;;;;;;7.97;1.40;;;24.10;47.40;;;;;;5005919;28;20049;-66
2022/10/03 17:48:19;;;;;;;3.33;0.85;;;24.10;47.60;;;;;;5007117;28;20072;-67
2022/10/03 17:51:09;;;;;;;5.15;1.27;;;24.00;47.60;;;;;;4992960;28;20140;-66
2022/10/03 17:53:38;;;;;;;3.45;1.23;;;24.00;47.60;;;;;;5006097;28;20046;-66